sensor_id;sensor_type;location;lat;lon;timestamp;temperature;humidity
40828;DHT22;26549;50.918;5.338;2023-05-08T00:01:53;17.80;99.90
40828;DHT22;26549;50.918;5.338;2023-05-08T00:04:19;17.60;99.90
40828;DHT22;26549;50.918;5.338;2023-05-08T00:06:45;17.60;99.90
40828;DHT22;26549;50.918;5.338;2023-05-08T00:09:11;17.60;99.90
40828;DHT22;26549;50.918;5.338;2023-05-08T00:11:37;17.60;99.90
40828;DHT22;26549;50.918;5.338;2023-05-08T00:14:03;17.60;99.90
40828;DHT22;26549;50.918;5.338;2023-05-08T00:16:30;17.60;99.90
40828;DHT22;26549;50.918;5.338;2023-05-08T00:18:56;17.60;99.90
40828;DHT22;26549;50.918;5.338;2023-05-08T00:21:22;17.60;99.90
40828;DHT22;26549;50.918;5.338;2023-05-08T00:23:47;17.50;99.90
40828;DHT22;26549;50.918;5.338;2023-05-08T00:26:13;17.50;99.90
40828;DHT22;26549;50.918;5.338;2023-05-08T00:28:42;17.50;99.90
40828;DHT22;26549;50.918;5.338;2023-05-08T00:31:08;17.40;99.90
40828;DHT22;26549;50.918;5.338;2023-05-08T00:33:34;17.40;99.90
40828;DHT22;26549;50.918;5.338;2023-05-08T00:36:01;17.50;99.90
40828;DHT22;26549;50.918;5.338;2023-05-08T00:38:32;17.60;99.90
40828;DHT22;26549;50.918;5.338;2023-05-08T00:40:59;17.60;99.90
40828;DHT22;26549;50.918;5.338;2023-05-08T00:43:28;17.60;99.90
40828;DHT22;26549;50.918;5.338;2023-05-08T00:45:55;17.60;99.90
40828;DHT22;26549;50.918;5.338;2023-05-08T00:48:22;17.60;99.90
40828;DHT22;26549;50.918;5.338;2023-05-08T00:50:51;17.60;99.90
40828;DHT22;26549;50.918;5.338;2023-05-08T00:53:21;17.70;99.90
40828;DHT22;26549;50.918;5.338;2023-05-08T00:55:48;17.80;99.90
40828;DHT22;26549;50.918;5.338;2023-05-08T00:58:22;17.80;99.90
40828;DHT22;26549;50.918;5.338;2023-05-08T01:00:55;17.80;99.90
40828;DHT22;26549;50.918;5.338;2023-05-08T01:03:22;17.80;99.90
40828;DHT22;26549;50.918;5.338;2023-05-08T01:05:48;17.80;99.90
40828;DHT22;26549;50.918;5.338;2023-05-08T01:08:14;17.80;99.90
40828;DHT22;26549;50.918;5.338;2023-05-08T01:10:57;17.80;99.90
40828;DHT22;26549;50.918;5.338;2023-05-08T01:16:37;17.80;99.90
40828;DHT22;26549;50.918;5.338;2023-05-08T01:33:12;17.40;99.90
40828;DHT22;26549;50.918;5.338;2023-05-08T01:38:31;17.40;99.90
40828;DHT22;26549;50.918;5.338;2023-05-08T01:41:11;17.40;99.90
40828;DHT22;26549;50.918;5.338;2023-05-08T01:46:25;17.40;99.90
40828;DHT22;26549;50.918;5.338;2023-05-08T01:51:28;17.50;99.90
40828;DHT22;26549;50.918;5.338;2023-05-08T01:54:04;17.50;99.90
40828;DHT22;26549;50.918;5.338;2023-05-08T01:56:37;17.50;99.90
40828;DHT22;26549;50.918;5.338;2023-05-08T01:59:07;17.50;99.90
40828;DHT22;26549;50.918;5.338;2023-05-08T02:01:38;17.40;99.90
40828;DHT22;26549;50.918;5.338;2023-05-08T02:04:06;17.30;99.90
40828;DHT22;26549;50.918;5.338;2023-05-08T02:06:32;17.30;99.90
40828;DHT22;26549;50.918;5.338;2023-05-08T02:08:59;17.20;99.90
40828;DHT22;26549;50.918;5.338;2023-05-08T02:11:28;17.40;99.90
40828;DHT22;26549;50.918;5.338;2023-05-08T02:13:57;17.40;99.90
40828;DHT22;26549;50.918;5.338;2023-05-08T02:16:27;17.40;99.90
40828;DHT22;26549;50.918;5.338;2023-05-08T02:18:54;17.40;99.90
40828;DHT22;26549;50.918;5.338;2023-05-08T02:21:22;17.50;99.90
40828;DHT22;26549;50.918;5.338;2023-05-08T02:23:51;17.50;99.90
40828;DHT22;26549;50.918;5.338;2023-05-08T02:26:19;17.30;99.90
40828;DHT22;26549;50.918;5.338;2023-05-08T02:28:49;17.40;99.90
40828;DHT22;26549;50.918;5.338;2023-05-08T02:31:17;17.50;99.90
40828;DHT22;26549;50.918;5.338;2023-05-08T02:33:44;17.50;99.90
40828;DHT22;26549;50.918;5.338;2023-05-08T02:36:12;17.50;99.90
40828;DHT22;26549;50.918;5.338;2023-05-08T02:38:40;17.40;99.90
40828;DHT22;26549;50.918;5.338;2023-05-08T02:41:12;17.20;99.90
40828;DHT22;26549;50.918;5.338;2023-05-08T02:43:40;17.10;99.90
40828;DHT22;26549;50.918;5.338;2023-05-08T02:46:17;17.10;99.90
40828;DHT22;26549;50.918;5.338;2023-05-08T02:48:57;17.00;99.90
40828;DHT22;26549;50.918;5.338;2023-05-08T02:52:16;17.00;99.90
40828;DHT22;26549;50.918;5.338;2023-05-08T03:03:10;17.40;99.90
40828;DHT22;26549;50.918;5.338;2023-05-08T03:05:38;17.40;99.90
40828;DHT22;26549;50.918;5.338;2023-05-08T03:08:13;17.30;99.90
40828;DHT22;26549;50.918;5.338;2023-05-08T03:10:43;17.30;99.90
40828;DHT22;26549;50.918;5.338;2023-05-08T03:13:12;17.30;99.90
40828;DHT22;26549;50.918;5.338;2023-05-08T03:15:56;17.20;99.90
40828;DHT22;26549;50.918;5.338;2023-05-08T03:18:31;17.10;99.90
40828;DHT22;26549;50.918;5.338;2023-05-08T03:20:59;17.10;99.90
40828;DHT22;26549;50.918;5.338;2023-05-08T03:23:28;17.10;99.90
40828;DHT22;26549;50.918;5.338;2023-05-08T03:25:57;17.10;99.90
40828;DHT22;26549;50.918;5.338;2023-05-08T03:28:25;17.00;99.90
40828;DHT22;26549;50.918;5.338;2023-05-08T03:30:55;17.10;99.90
40828;DHT22;26549;50.918;5.338;2023-05-08T03:33:22;17.10;99.90
40828;DHT22;26549;50.918;5.338;2023-05-08T03:35:49;17.20;99.90
40828;DHT22;26549;50.918;5.338;2023-05-08T03:38:15;17.00;99.90
40828;DHT22;26549;50.918;5.338;2023-05-08T03:40:42;17.00;99.90
40828;DHT22;26549;50.918;5.338;2023-05-08T03:43:10;17.00;99.90
40828;DHT22;26549;50.918;5.338;2023-05-08T03:45:38;17.00;99.90
40828;DHT22;26549;50.918;5.338;2023-05-08T03:48:05;17.10;99.90
40828;DHT22;26549;50.918;5.338;2023-05-08T03:50:34;17.20;99.90
40828;DHT22;26549;50.918;5.338;2023-05-08T03:53:01;17.30;99.90
40828;DHT22;26549;50.918;5.338;2023-05-08T03:55:30;17.20;99.90
40828;DHT22;26549;50.918;5.338;2023-05-08T04:03:31;17.30;99.90
40828;DHT22;26549;50.918;5.338;2023-05-08T04:06:08;17.30;99.90
40828;DHT22;26549;50.918;5.338;2023-05-08T04:08:41;17.30;99.90
40828;DHT22;26549;50.918;5.338;2023-05-08T04:11:17;17.30;99.90
40828;DHT22;26549;50.918;5.338;2023-05-08T04:13:59;17.30;99.90
40828;DHT22;26549;50.918;5.338;2023-05-08T04:16:27;17.30;99.90
40828;DHT22;26549;50.918;5.338;2023-05-08T04:18:58;17.30;99.90
40828;DHT22;26549;50.918;5.338;2023-05-08T04:21:28;17.20;99.90
40828;DHT22;26549;50.918;5.338;2023-05-08T04:23:56;17.20;99.90
40828;DHT22;26549;50.918;5.338;2023-05-08T04:26:25;17.30;99.90
40828;DHT22;26549;50.918;5.338;2023-05-08T04:28:51;17.30;99.90
40828;DHT22;26549;50.918;5.338;2023-05-08T04:31:18;17.20;99.90
40828;DHT22;26549;50.918;5.338;2023-05-08T04:33:44;17.10;99.90
40828;DHT22;26549;50.918;5.338;2023-05-08T04:36:12;17.20;99.90
40828;DHT22;26549;50.918;5.338;2023-05-08T04:38:39;17.20;99.90
40828;DHT22;26549;50.918;5.338;2023-05-08T04:41:07;17.20;99.90
40828;DHT22;26549;50.918;5.338;2023-05-08T04:43:34;17.20;99.90
40828;DHT22;26549;50.918;5.338;2023-05-08T04:46:01;17.10;99.90
40828;DHT22;26549;50.918;5.338;2023-05-08T04:48:29;16.90;99.90
40828;DHT22;26549;50.918;5.338;2023-05-08T04:50:57;17.00;99.90
40828;DHT22;26549;50.918;5.338;2023-05-08T04:53:23;16.90;99.90
40828;DHT22;26549;50.918;5.338;2023-05-08T04:55:50;16.90;99.90
40828;DHT22;26549;50.918;5.338;2023-05-08T04:58:17;16.80;99.90
40828;DHT22;26549;50.918;5.338;2023-05-08T05:00:43;16.80;99.90
40828;DHT22;26549;50.918;5.338;2023-05-08T05:03:09;16.90;99.90
40828;DHT22;26549;50.918;5.338;2023-05-08T05:05:35;16.90;99.90
40828;DHT22;26549;50.918;5.338;2023-05-08T05:08:01;16.90;99.90
40828;DHT22;26549;50.918;5.338;2023-05-08T05:10:27;16.90;99.90
40828;DHT22;26549;50.918;5.338;2023-05-08T05:12:53;16.90;99.90
40828;DHT22;26549;50.918;5.338;2023-05-08T05:15:19;16.90;99.90
40828;DHT22;26549;50.918;5.338;2023-05-08T05:17:47;16.90;99.90
40828;DHT22;26549;50.918;5.338;2023-05-08T05:20:13;16.90;99.90
40828;DHT22;26549;50.918;5.338;2023-05-08T05:22:39;17.00;99.90
40828;DHT22;26549;50.918;5.338;2023-05-08T05:25:05;17.00;99.90
40828;DHT22;26549;50.918;5.338;2023-05-08T05:27:34;17.00;99.90
40828;DHT22;26549;50.918;5.338;2023-05-08T05:30:03;17.00;99.90
40828;DHT22;26549;50.918;5.338;2023-05-08T05:32:29;17.10;99.90
40828;DHT22;26549;50.918;5.338;2023-05-08T05:34:55;17.20;99.90
40828;DHT22;26549;50.918;5.338;2023-05-08T05:37:21;17.20;99.90
40828;DHT22;26549;50.918;5.338;2023-05-08T05:39:51;17.20;99.90
40828;DHT22;26549;50.918;5.338;2023-05-08T05:42:18;17.20;99.90
40828;DHT22;26549;50.918;5.338;2023-05-08T05:44:44;17.20;99.90
40828;DHT22;26549;50.918;5.338;2023-05-08T05:47:10;17.20;99.90
40828;DHT22;26549;50.918;5.338;2023-05-08T05:49:36;17.20;99.90
40828;DHT22;26549;50.918;5.338;2023-05-08T05:52:04;17.20;99.90
40828;DHT22;26549;50.918;5.338;2023-05-08T05:54:30;17.20;99.90
40828;DHT22;26549;50.918;5.338;2023-05-08T05:56:55;17.20;99.90
40828;DHT22;26549;50.918;5.338;2023-05-08T05:59:21;17.20;99.90
40828;DHT22;26549;50.918;5.338;2023-05-08T06:01:47;17.20;99.90
40828;DHT22;26549;50.918;5.338;2023-05-08T06:04:12;17.10;99.90
40828;DHT22;26549;50.918;5.338;2023-05-08T06:06:38;17.20;99.90
40828;DHT22;26549;50.918;5.338;2023-05-08T06:09:04;17.20;99.90
40828;DHT22;26549;50.918;5.338;2023-05-08T06:11:31;17.10;99.90
40828;DHT22;26549;50.918;5.338;2023-05-08T06:13:57;17.20;99.90
40828;DHT22;26549;50.918;5.338;2023-05-08T06:16:22;17.30;99.90
40828;DHT22;26549;50.918;5.338;2023-05-08T06:18:50;17.30;99.90
40828;DHT22;26549;50.918;5.338;2023-05-08T06:21:16;17.30;99.90
40828;DHT22;26549;50.918;5.338;2023-05-08T06:23:42;17.30;99.90
40828;DHT22;26549;50.918;5.338;2023-05-08T06:26:08;17.30;99.90
40828;DHT22;26549;50.918;5.338;2023-05-08T06:28:33;17.40;99.90
40828;DHT22;26549;50.918;5.338;2023-05-08T06:30:59;17.40;99.90
40828;DHT22;26549;50.918;5.338;2023-05-08T06:33:25;17.40;99.90
40828;DHT22;26549;50.918;5.338;2023-05-08T06:35:50;17.40;99.90
40828;DHT22;26549;50.918;5.338;2023-05-08T06:38:16;17.40;99.90
40828;DHT22;26549;50.918;5.338;2023-05-08T06:40:44;17.30;99.90
40828;DHT22;26549;50.918;5.338;2023-05-08T06:43:12;17.30;99.90
40828;DHT22;26549;50.918;5.338;2023-05-08T06:45:38;17.40;99.90
40828;DHT22;26549;50.918;5.338;2023-05-08T06:48:05;17.50;99.90
40828;DHT22;26549;50.918;5.338;2023-05-08T06:50:30;17.50;99.90
40828;DHT22;26549;50.918;5.338;2023-05-08T06:52:56;17.50;99.90
40828;DHT22;26549;50.918;5.338;2023-05-08T06:55:22;17.50;99.90
40828;DHT22;26549;50.918;5.338;2023-05-08T06:57:48;17.60;99.90
40828;DHT22;26549;50.918;5.338;2023-05-08T07:00:14;17.50;99.90
40828;DHT22;26549;50.918;5.338;2023-05-08T07:02:40;17.60;99.90
40828;DHT22;26549;50.918;5.338;2023-05-08T07:05:06;17.40;99.90
40828;DHT22;26549;50.918;5.338;2023-05-08T07:07:31;17.40;99.90
40828;DHT22;26549;50.918;5.338;2023-05-08T07:09:57;17.50;99.90
40828;DHT22;26549;50.918;5.338;2023-05-08T07:12:23;17.50;99.90
40828;DHT22;26549;50.918;5.338;2023-05-08T07:14:49;17.50;99.90
40828;DHT22;26549;50.918;5.338;2023-05-08T07:17:14;17.40;99.90
40828;DHT22;26549;50.918;5.338;2023-05-08T07:19:40;17.50;99.90
40828;DHT22;26549;50.918;5.338;2023-05-08T07:22:07;17.50;99.90
40828;DHT22;26549;50.918;5.338;2023-05-08T07:24:33;17.50;99.90
40828;DHT22;26549;50.918;5.338;2023-05-08T07:26:58;17.40;99.90
40828;DHT22;26549;50.918;5.338;2023-05-08T07:29:25;17.40;99.90
40828;DHT22;26549;50.918;5.338;2023-05-08T07:31:52;17.40;99.90
40828;DHT22;26549;50.918;5.338;2023-05-08T07:34:18;17.30;99.90
40828;DHT22;26549;50.918;5.338;2023-05-08T07:36:43;17.30;99.90
40828;DHT22;26549;50.918;5.338;2023-05-08T07:39:09;17.50;99.90
40828;DHT22;26549;50.918;5.338;2023-05-08T07:41:36;17.60;99.90
40828;DHT22;26549;50.918;5.338;2023-05-08T07:44:03;17.70;99.90
40828;DHT22;26549;50.918;5.338;2023-05-08T07:46:29;17.80;99.90
40828;DHT22;26549;50.918;5.338;2023-05-08T07:48:55;17.80;99.90
40828;DHT22;26549;50.918;5.338;2023-05-08T07:51:20;17.80;99.90
40828;DHT22;26549;50.918;5.338;2023-05-08T07:53:46;17.90;99.90
40828;DHT22;26549;50.918;5.338;2023-05-08T07:56:13;18.00;99.90
40828;DHT22;26549;50.918;5.338;2023-05-08T07:58:40;18.10;99.90
40828;DHT22;26549;50.918;5.338;2023-05-08T08:01:07;17.90;99.90
40828;DHT22;26549;50.918;5.338;2023-05-08T08:03:33;18.00;99.90
40828;DHT22;26549;50.918;5.338;2023-05-08T08:06:00;18.00;99.90
40828;DHT22;26549;50.918;5.338;2023-05-08T08:08:25;18.10;99.90
40828;DHT22;26549;50.918;5.338;2023-05-08T08:10:52;18.20;99.90
40828;DHT22;26549;50.918;5.338;2023-05-08T08:13:20;18.40;99.90
40828;DHT22;26549;50.918;5.338;2023-05-08T08:15:46;18.40;99.90
40828;DHT22;26549;50.918;5.338;2023-05-08T08:18:11;18.40;99.90
40828;DHT22;26549;50.918;5.338;2023-05-08T08:20:38;18.20;99.90
40828;DHT22;26549;50.918;5.338;2023-05-08T08:23:04;18.50;99.90
40828;DHT22;26549;50.918;5.338;2023-05-08T08:25:30;18.40;99.90
40828;DHT22;26549;50.918;5.338;2023-05-08T08:27:57;18.30;99.90
40828;DHT22;26549;50.918;5.338;2023-05-08T08:30:24;18.40;99.90
40828;DHT22;26549;50.918;5.338;2023-05-08T08:32:50;18.40;99.90
40828;DHT22;26549;50.918;5.338;2023-05-08T08:35:16;18.60;99.90
40828;DHT22;26549;50.918;5.338;2023-05-08T08:37:41;18.70;99.90
40828;DHT22;26549;50.918;5.338;2023-05-08T08:40:08;18.90;99.90
40828;DHT22;26549;50.918;5.338;2023-05-08T08:42:34;18.90;99.90
40828;DHT22;26549;50.918;5.338;2023-05-08T08:45:01;18.90;99.90
40828;DHT22;26549;50.918;5.338;2023-05-08T08:47:30;19.00;99.90
40828;DHT22;26549;50.918;5.338;2023-05-08T08:50:01;19.00;99.90
40828;DHT22;26549;50.918;5.338;2023-05-08T08:52:48;19.00;99.90
40828;DHT22;26549;50.918;5.338;2023-05-08T08:55:17;19.10;99.90
40828;DHT22;26549;50.918;5.338;2023-05-08T09:00:36;19.00;99.90
40828;DHT22;26549;50.918;5.338;2023-05-08T09:03:04;18.90;99.90
40828;DHT22;26549;50.918;5.338;2023-05-08T09:05:30;19.00;99.90
40828;DHT22;26549;50.918;5.338;2023-05-08T09:07:57;18.90;99.90
40828;DHT22;26549;50.918;5.338;2023-05-08T09:10:24;18.90;99.90
40828;DHT22;26549;50.918;5.338;2023-05-08T09:12:51;18.90;99.90
40828;DHT22;26549;50.918;5.338;2023-05-08T09:15:17;18.90;99.90
40828;DHT22;26549;50.918;5.338;2023-05-08T09:17:43;18.90;99.90
40828;DHT22;26549;50.918;5.338;2023-05-08T09:20:09;18.80;99.90
40828;DHT22;26549;50.918;5.338;2023-05-08T09:22:37;18.80;99.90
40828;DHT22;26549;50.918;5.338;2023-05-08T09:25:03;18.90;99.90
40828;DHT22;26549;50.918;5.338;2023-05-08T09:27:30;19.00;99.90
40828;DHT22;26549;50.918;5.338;2023-05-08T09:32:29;19.10;99.90
40828;DHT22;26549;50.918;5.338;2023-05-08T09:34:57;19.20;99.90
40828;DHT22;26549;50.918;5.338;2023-05-08T09:37:24;19.30;99.90
40828;DHT22;26549;50.918;5.338;2023-05-08T09:39:50;19.50;99.90
40828;DHT22;26549;50.918;5.338;2023-05-08T09:42:16;19.50;99.90
40828;DHT22;26549;50.918;5.338;2023-05-08T09:44:50;19.50;99.90
40828;DHT22;26549;50.918;5.338;2023-05-08T09:47:20;19.50;99.90
40828;DHT22;26549;50.918;5.338;2023-05-08T09:50:06;19.60;99.90
40828;DHT22;26549;50.918;5.338;2023-05-08T09:52:35;19.60;99.90
40828;DHT22;26549;50.918;5.338;2023-05-08T09:55:10;19.60;99.90
40828;DHT22;26549;50.918;5.338;2023-05-08T09:57:38;19.70;99.90
40828;DHT22;26549;50.918;5.338;2023-05-08T10:00:06;19.90;99.90
40828;DHT22;26549;50.918;5.338;2023-05-08T10:02:34;20.00;99.90
40828;DHT22;26549;50.918;5.338;2023-05-08T10:05:00;20.10;99.90
40828;DHT22;26549;50.918;5.338;2023-05-08T10:07:27;20.30;99.90
40828;DHT22;26549;50.918;5.338;2023-05-08T10:10:00;20.20;99.90
40828;DHT22;26549;50.918;5.338;2023-05-08T10:12:27;20.20;99.90
40828;DHT22;26549;50.918;5.338;2023-05-08T10:14:53;20.30;99.90
40828;DHT22;26549;50.918;5.338;2023-05-08T10:17:25;20.40;99.90
40828;DHT22;26549;50.918;5.338;2023-05-08T10:19:57;20.20;99.90
40828;DHT22;26549;50.918;5.338;2023-05-08T10:22:24;20.30;99.90
40828;DHT22;26549;50.918;5.338;2023-05-08T10:24:55;20.40;99.90
40828;DHT22;26549;50.918;5.338;2023-05-08T10:27:33;20.50;99.90
40828;DHT22;26549;50.918;5.338;2023-05-08T10:30:03;20.40;99.90
40828;DHT22;26549;50.918;5.338;2023-05-08T10:32:36;20.40;99.90
40828;DHT22;26549;50.918;5.338;2023-05-08T10:35:07;20.50;99.90
40828;DHT22;26549;50.918;5.338;2023-05-08T10:37:34;20.60;99.90
40828;DHT22;26549;50.918;5.338;2023-05-08T10:40:02;20.60;99.90
40828;DHT22;26549;50.918;5.338;2023-05-08T10:42:28;20.70;99.90
40828;DHT22;26549;50.918;5.338;2023-05-08T10:44:55;20.90;99.90
40828;DHT22;26549;50.918;5.338;2023-05-08T10:47:29;20.90;99.90
40828;DHT22;26549;50.918;5.338;2023-05-08T10:52:38;21.10;99.90
40828;DHT22;26549;50.918;5.338;2023-05-08T10:55:17;21.10;99.90
40828;DHT22;26549;50.918;5.338;2023-05-08T10:58:03;21.20;99.90
40828;DHT22;26549;50.918;5.338;2023-05-08T11:03:16;21.40;99.90
40828;DHT22;26549;50.918;5.338;2023-05-08T11:05:46;21.30;99.90
40828;DHT22;26549;50.918;5.338;2023-05-08T11:08:20;21.30;99.90
40828;DHT22;26549;50.918;5.338;2023-05-08T11:13:47;21.30;99.90
40828;DHT22;26549;50.918;5.338;2023-05-08T11:16:10;21.30;99.90
40828;DHT22;26549;50.918;5.338;2023-05-08T11:18:36;21.30;99.90
40828;DHT22;26549;50.918;5.338;2023-05-08T11:21:04;21.50;99.90
40828;DHT22;26549;50.918;5.338;2023-05-08T11:23:35;21.70;99.90
40828;DHT22;26549;50.918;5.338;2023-05-08T11:26:11;21.90;99.90
40828;DHT22;26549;50.918;5.338;2023-05-08T11:31:19;21.70;99.90
40828;DHT22;26549;50.918;5.338;2023-05-08T11:33:45;21.80;99.90
40828;DHT22;26549;50.918;5.338;2023-05-08T11:38:39;22.00;99.90
40828;DHT22;26549;50.918;5.338;2023-05-08T11:41:08;21.90;99.90
40828;DHT22;26549;50.918;5.338;2023-05-08T11:46:13;22.20;99.90
40828;DHT22;26549;50.918;5.338;2023-05-08T11:48:39;22.10;99.90
40828;DHT22;26549;50.918;5.338;2023-05-08T11:51:05;22.00;99.90
40828;DHT22;26549;50.918;5.338;2023-05-08T11:53:31;22.00;99.90
40828;DHT22;26549;50.918;5.338;2023-05-08T11:56:01;22.30;99.90
40828;DHT22;26549;50.918;5.338;2023-05-08T11:58:28;22.30;99.90
40828;DHT22;26549;50.918;5.338;2023-05-08T12:00:54;22.10;99.90
40828;DHT22;26549;50.918;5.338;2023-05-08T12:03:21;22.20;99.90
40828;DHT22;26549;50.918;5.338;2023-05-08T12:05:50;22.30;99.90
40828;DHT22;26549;50.918;5.338;2023-05-08T12:08:17;22.30;99.90
40828;DHT22;26549;50.918;5.338;2023-05-08T12:15:49;22.20;99.90
40828;DHT22;26549;50.918;5.338;2023-05-08T12:18:15;22.30;99.90
40828;DHT22;26549;50.918;5.338;2023-05-08T12:20:42;22.30;99.90
40828;DHT22;26549;50.918;5.338;2023-05-08T12:23:08;22.40;99.90
40828;DHT22;26549;50.918;5.338;2023-05-08T12:25:37;22.20;99.90
40828;DHT22;26549;50.918;5.338;2023-05-08T12:28:06;22.10;99.90
40828;DHT22;26549;50.918;5.338;2023-05-08T12:30:32;22.20;99.90
40828;DHT22;26549;50.918;5.338;2023-05-08T12:32:58;22.10;99.90
40828;DHT22;26549;50.918;5.338;2023-05-08T12:35:25;22.10;99.90
40828;DHT22;26549;50.918;5.338;2023-05-08T12:37:52;22.20;99.90
40828;DHT22;26549;50.918;5.338;2023-05-08T12:40:38;22.40;99.90
40828;DHT22;26549;50.918;5.338;2023-05-08T12:43:04;22.50;99.90
40828;DHT22;26549;50.918;5.338;2023-05-08T12:45:32;22.70;99.90
40828;DHT22;26549;50.918;5.338;2023-05-08T12:48:02;23.00;99.90
40828;DHT22;26549;50.918;5.338;2023-05-08T12:50:32;22.60;99.90
40828;DHT22;26549;50.918;5.338;2023-05-08T12:53:05;22.80;99.90
40828;DHT22;26549;50.918;5.338;2023-05-08T12:55:33;22.80;99.90
40828;DHT22;26549;50.918;5.338;2023-05-08T12:58:07;22.60;99.90
40828;DHT22;26549;50.918;5.338;2023-05-08T13:00:44;22.70;99.90
40828;DHT22;26549;50.918;5.338;2023-05-08T13:03:12;22.80;99.90
40828;DHT22;26549;50.918;5.338;2023-05-08T13:05:42;22.80;99.90
40828;DHT22;26549;50.918;5.338;2023-05-08T13:08:09;22.90;99.90
40828;DHT22;26549;50.918;5.338;2023-05-08T13:10:47;22.90;99.90
40828;DHT22;26549;50.918;5.338;2023-05-08T13:13:15;23.00;99.90
40828;DHT22;26549;50.918;5.338;2023-05-08T13:15:41;23.00;99.90
40828;DHT22;26549;50.918;5.338;2023-05-08T13:18:07;23.00;99.90
40828;DHT22;26549;50.918;5.338;2023-05-08T13:20:36;23.00;99.90
40828;DHT22;26549;50.918;5.338;2023-05-08T13:23:03;23.20;99.90
40828;DHT22;26549;50.918;5.338;2023-05-08T13:25:29;23.30;99.90
40828;DHT22;26549;50.918;5.338;2023-05-08T13:27:56;23.00;99.90
40828;DHT22;26549;50.918;5.338;2023-05-08T13:30:22;23.10;99.90
40828;DHT22;26549;50.918;5.338;2023-05-08T13:32:51;23.10;99.90
40828;DHT22;26549;50.918;5.338;2023-05-08T13:35:19;23.10;99.90
40828;DHT22;26549;50.918;5.338;2023-05-08T13:37:46;23.00;99.90
40828;DHT22;26549;50.918;5.338;2023-05-08T13:40:12;23.10;99.90
40828;DHT22;26549;50.918;5.338;2023-05-08T13:42:38;23.30;99.90
40828;DHT22;26549;50.918;5.338;2023-05-08T13:45:05;23.30;99.90
40828;DHT22;26549;50.918;5.338;2023-05-08T13:47:31;23.20;99.90
40828;DHT22;26549;50.918;5.338;2023-05-08T13:49:57;23.20;99.90
40828;DHT22;26549;50.918;5.338;2023-05-08T13:52:23;23.40;99.90
40828;DHT22;26549;50.918;5.338;2023-05-08T13:54:50;23.30;99.90
40828;DHT22;26549;50.918;5.338;2023-05-08T13:57:16;23.20;99.90
40828;DHT22;26549;50.918;5.338;2023-05-08T13:59:41;23.30;99.90
40828;DHT22;26549;50.918;5.338;2023-05-08T14:02:07;23.10;99.90
40828;DHT22;26549;50.918;5.338;2023-05-08T14:04:33;23.00;99.90
40828;DHT22;26549;50.918;5.338;2023-05-08T14:07:00;23.00;99.90
40828;DHT22;26549;50.918;5.338;2023-05-08T14:09:25;23.10;99.90
40828;DHT22;26549;50.918;5.338;2023-05-08T14:11:51;22.90;99.90
40828;DHT22;26549;50.918;5.338;2023-05-08T14:14:17;22.90;99.90
40828;DHT22;26549;50.918;5.338;2023-05-08T14:16:43;23.00;99.90
40828;DHT22;26549;50.918;5.338;2023-05-08T14:19:09;23.00;99.90
40828;DHT22;26549;50.918;5.338;2023-05-08T14:21:34;23.00;99.90
40828;DHT22;26549;50.918;5.338;2023-05-08T14:24:01;23.00;99.90
40828;DHT22;26549;50.918;5.338;2023-05-08T14:26:27;23.10;99.90
40828;DHT22;26549;50.918;5.338;2023-05-08T14:28:53;23.10;99.90
40828;DHT22;26549;50.918;5.338;2023-05-08T14:31:18;23.10;99.90
40828;DHT22;26549;50.918;5.338;2023-05-08T14:33:44;23.10;99.90
40828;DHT22;26549;50.918;5.338;2023-05-08T14:36:10;23.20;99.90
40828;DHT22;26549;50.918;5.338;2023-05-08T14:38:36;23.40;99.90
40828;DHT22;26549;50.918;5.338;2023-05-08T14:41:02;23.30;99.90
40828;DHT22;26549;50.918;5.338;2023-05-08T14:43:27;23.10;99.90
40828;DHT22;26549;50.918;5.338;2023-05-08T14:45:53;23.10;99.90
40828;DHT22;26549;50.918;5.338;2023-05-08T14:48:19;23.20;99.90
40828;DHT22;26549;50.918;5.338;2023-05-08T14:50:45;23.20;99.90
40828;DHT22;26549;50.918;5.338;2023-05-08T14:53:11;23.20;99.90
40828;DHT22;26549;50.918;5.338;2023-05-08T14:55:36;23.20;99.90
40828;DHT22;26549;50.918;5.338;2023-05-08T14:58:03;23.10;99.90
40828;DHT22;26549;50.918;5.338;2023-05-08T15:00:29;23.20;99.90
40828;DHT22;26549;50.918;5.338;2023-05-08T15:02:54;23.40;99.90
40828;DHT22;26549;50.918;5.338;2023-05-08T15:05:20;23.30;99.90
40828;DHT22;26549;50.918;5.338;2023-05-08T15:07:46;23.40;99.90
40828;DHT22;26549;50.918;5.338;2023-05-08T15:10:14;23.40;99.90
40828;DHT22;26549;50.918;5.338;2023-05-08T15:12:39;23.40;99.90
40828;DHT22;26549;50.918;5.338;2023-05-08T15:15:05;23.40;99.90
40828;DHT22;26549;50.918;5.338;2023-05-08T15:17:32;23.40;99.90
40828;DHT22;26549;50.918;5.338;2023-05-08T15:20:04;23.20;99.90
40828;DHT22;26549;50.918;5.338;2023-05-08T15:22:30;23.30;99.90
40828;DHT22;26549;50.918;5.338;2023-05-08T15:24:56;23.20;99.90
40828;DHT22;26549;50.918;5.338;2023-05-08T15:27:27;23.20;99.90
40828;DHT22;26549;50.918;5.338;2023-05-08T15:29:54;23.00;99.90
40828;DHT22;26549;50.918;5.338;2023-05-08T15:32:20;22.90;99.90
40828;DHT22;26549;50.918;5.338;2023-05-08T15:34:45;22.90;99.90
40828;DHT22;26549;50.918;5.338;2023-05-08T15:37:11;22.80;99.90
40828;DHT22;26549;50.918;5.338;2023-05-08T15:39:37;22.80;99.90
40828;DHT22;26549;50.918;5.338;2023-05-08T15:42:03;22.80;99.90
40828;DHT22;26549;50.918;5.338;2023-05-08T15:44:29;22.70;99.90
40828;DHT22;26549;50.918;5.338;2023-05-08T15:46:55;22.70;99.90
40828;DHT22;26549;50.918;5.338;2023-05-08T15:49:21;22.70;99.90
40828;DHT22;26549;50.918;5.338;2023-05-08T15:51:52;22.60;99.90
40828;DHT22;26549;50.918;5.338;2023-05-08T15:54:18;22.50;99.90
40828;DHT22;26549;50.918;5.338;2023-05-08T15:56:43;22.60;99.90
40828;DHT22;26549;50.918;5.338;2023-05-08T15:59:09;22.60;99.90
40828;DHT22;26549;50.918;5.338;2023-05-08T16:01:35;22.50;99.90
40828;DHT22;26549;50.918;5.338;2023-05-08T16:04:02;22.50;99.90
40828;DHT22;26549;50.918;5.338;2023-05-08T16:06:27;22.50;99.90
40828;DHT22;26549;50.918;5.338;2023-05-08T16:08:53;22.40;99.90
40828;DHT22;26549;50.918;5.338;2023-05-08T16:11:19;22.60;99.90
40828;DHT22;26549;50.918;5.338;2023-05-08T16:13:46;22.60;99.90
40828;DHT22;26549;50.918;5.338;2023-05-08T16:16:12;22.60;99.90
40828;DHT22;26549;50.918;5.338;2023-05-08T16:18:38;22.60;99.90
40828;DHT22;26549;50.918;5.338;2023-05-08T16:21:10;22.60;99.90
40828;DHT22;26549;50.918;5.338;2023-05-08T16:23:39;22.50;99.90
40828;DHT22;26549;50.918;5.338;2023-05-08T16:26:08;22.50;99.90
40828;DHT22;26549;50.918;5.338;2023-05-08T16:28:45;22.60;99.90
40828;DHT22;26549;50.918;5.338;2023-05-08T16:31:12;22.70;99.90
40828;DHT22;26549;50.918;5.338;2023-05-08T16:33:37;22.90;99.90
40828;DHT22;26549;50.918;5.338;2023-05-08T16:36:04;22.80;99.90
40828;DHT22;26549;50.918;5.338;2023-05-08T16:38:30;22.80;99.90
40828;DHT22;26549;50.918;5.338;2023-05-08T16:41:05;22.70;99.90